sensor_id;sensor_type;location;lat;lon;timestamp;P1;durP1;ratioP1;P2;durP2;ratioP2
51066;SDS011;37112;45.892;-123.962;2022-08-19T00:01:34;28.90;;;9.70;;
51066;SDS011;37112;45.892;-123.962;2022-08-19T00:03:49;27.30;;;10.00;;
51066;SDS011;37112;45.892;-123.962;2022-08-19T00:06:02;23.60;;;8.10;;
51066;SDS011;37112;45.892;-123.962;2022-08-19T00:08:15;26.30;;;9.50;;
51066;SDS011;37112;45.892;-123.962;2022-08-19T00:10:28;17.70;;;6.50;;
51066;SDS011;37112;45.892;-123.962;2022-08-19T00:12:41;24.10;;;8.00;;
51066;SDS011;37112;45.892;-123.962;2022-08-19T00:14:55;27.10;;;8.90;;
51066;SDS011;37112;45.892;-123.962;2022-08-19T00:17:08;12.00;;;4.70;;
51066;SDS011;37112;45.892;-123.962;2022-08-19T00:19:22;9.90;;;4.10;;
51066;SDS011;37112;45.892;-123.962;2022-08-19T00:21:35;8.90;;;3.30;;
51066;SDS011;37112;45.892;-123.962;2022-08-19T00:23:48;34.50;;;10.70;;
51066;SDS011;37112;45.892;-123.962;2022-08-19T00:26:01;55.60;;;15.50;;
51066;SDS011;37112;45.892;-123.962;2022-08-19T00:28:15;31.40;;;10.20;;
51066;SDS011;37112;45.892;-123.962;2022-08-19T00:30:29;35.80;;;10.90;;
51066;SDS011;37112;45.892;-123.962;2022-08-19T00:32:42;17.20;;;6.10;;
51066;SDS011;37112;45.892;-123.962;2022-08-19T00:34:55;34.30;;;11.10;;
51066;SDS011;37112;45.892;-123.962;2022-08-19T00:37:08;65.50;;;19.10;;
51066;SDS011;37112;45.892;-123.962;2022-08-19T00:39:21;68.30;;;19.50;;
51066;SDS011;37112;45.892;-123.962;2022-08-19T00:41:34;50.30;;;13.40;;
51066;SDS011;37112;45.892;-123.962;2022-08-19T00:43:57;58.70;;;21.10;;
51066;SDS011;37112;45.892;-123.962;2022-08-19T00:46:13;66.20;;;18.70;;
51066;SDS011;37112;45.892;-123.962;2022-08-19T00:48:26;34.10;;;10.10;;
51066;SDS011;37112;45.892;-123.962;2022-08-19T00:50:40;20.40;;;6.00;;
51066;SDS011;37112;45.892;-123.962;2022-08-19T00:52:57;21.60;;;9.40;;
51066;SDS011;37112;45.892;-123.962;2022-08-19T00:55:12;28.20;;;9.10;;
51066;SDS011;37112;45.892;-123.962;2022-08-19T00:57:30;20.20;;;6.30;;
51066;SDS011;37112;45.892;-123.962;2022-08-19T00:59:46;33.60;;;11.50;;
51066;SDS011;37112;45.892;-123.962;2022-08-19T01:02:07;41.10;;;11.90;;
51066;SDS011;37112;45.892;-123.962;2022-08-19T01:04:22;40.10;;;14.50;;
51066;SDS011;37112;45.892;-123.962;2022-08-19T01:06:35;11.90;;;5.70;;
51066;SDS011;37112;45.892;-123.962;2022-08-19T01:08:50;19.00;;;7.20;;
51066;SDS011;37112;45.892;-123.962;2022-08-19T01:11:04;35.50;;;12.40;;
51066;SDS011;37112;45.892;-123.962;2022-08-19T01:13:19;15.10;;;5.60;;
51066;SDS011;37112;45.892;-123.962;2022-08-19T01:15:56;8.70;;;3.20;;
51066;SDS011;37112;45.892;-123.962;2022-08-19T01:18:12;12.90;;;4.50;;
51066;SDS011;37112;45.892;-123.962;2022-08-19T01:20:27;9.00;;;4.00;;
51066;SDS011;37112;45.892;-123.962;2022-08-19T01:22:43;6.20;;;3.10;;
51066;SDS011;37112;45.892;-123.962;2022-08-19T01:24:58;29.50;;;10.70;;
51066;SDS011;37112;45.892;-123.962;2022-08-19T01:27:21;76.60;;;28.00;;
51066;SDS011;37112;45.892;-123.962;2022-08-19T01:29:48;83.70;;;22.50;;
51066;SDS011;37112;45.892;-123.962;2022-08-19T01:32:03;109.20;;;31.20;;
51066;SDS011;37112;45.892;-123.962;2022-08-19T01:34:37;74.90;;;20.40;;
51066;SDS011;37112;45.892;-123.962;2022-08-19T01:36:54;37.00;;;10.70;;
51066;SDS011;37112;45.892;-123.962;2022-08-19T01:39:09;38.60;;;13.40;;
51066;SDS011;37112;45.892;-123.962;2022-08-19T01:41:25;42.30;;;13.60;;
51066;SDS011;37112;45.892;-123.962;2022-08-19T01:43:38;24.20;;;9.40;;
51066;SDS011;37112;45.892;-123.962;2022-08-19T01:46:11;19.20;;;7.10;;
51066;SDS011;37112;45.892;-123.962;2022-08-19T01:48:30;42.30;;;14.40;;
51066;SDS011;37112;45.892;-123.962;2022-08-19T01:50:46;67.40;;;19.90;;
51066;SDS011;37112;45.892;-123.962;2022-08-19T01:52:59;78.60;;;23.00;;
51066;SDS011;37112;45.892;-123.962;2022-08-19T01:55:15;40.90;;;14.40;;
51066;SDS011;37112;45.892;-123.962;2022-08-19T01:57:31;15.60;;;5.90;;
51066;SDS011;37112;45.892;-123.962;2022-08-19T01:59:44;13.10;;;5.50;;
51066;SDS011;37112;45.892;-123.962;2022-08-19T02:01:58;19.00;;;7.60;;
51066;SDS011;37112;45.892;-123.962;2022-08-19T02:04:13;19.50;;;8.00;;
51066;SDS011;37112;45.892;-123.962;2022-08-19T02:06:26;21.70;;;8.20;;
51066;SDS011;37112;45.892;-123.962;2022-08-19T02:08:40;21.00;;;7.80;;
51066;SDS011;37112;45.892;-123.962;2022-08-19T02:10:57;26.80;;;9.90;;
51066;SDS011;37112;45.892;-123.962;2022-08-19T02:13:10;15.60;;;7.40;;
51066;SDS011;37112;45.892;-123.962;2022-08-19T02:15:31;25.70;;;7.40;;
51066;SDS011;37112;45.892;-123.962;2022-08-19T02:17:45;19.50;;;6.60;;
51066;SDS011;37112;45.892;-123.962;2022-08-19T02:19:58;25.90;;;9.00;;
51066;SDS011;37112;45.892;-123.962;2022-08-19T02:22:11;32.60;;;9.00;;
51066;SDS011;37112;45.892;-123.962;2022-08-19T02:24:24;33.40;;;9.10;;
51066;SDS011;37112;45.892;-123.962;2022-08-19T02:26:37;17.00;;;6.00;;
51066;SDS011;37112;45.892;-123.962;2022-08-19T02:28:51;19.50;;;8.70;;
51066;SDS011;37112;45.892;-123.962;2022-08-19T02:31:08;13.80;;;5.00;;
51066;SDS011;37112;45.892;-123.962;2022-08-19T02:33:22;13.40;;;5.00;;
51066;SDS011;37112;45.892;-123.962;2022-08-19T02:35:35;50.60;;;15.40;;
51066;SDS011;37112;45.892;-123.962;2022-08-19T02:37:50;67.70;;;19.40;;
51066;SDS011;37112;45.892;-123.962;2022-08-19T02:40:19;52.70;;;15.70;;
51066;SDS011;37112;45.892;-123.962;2022-08-19T02:42:32;35.20;;;11.50;;
51066;SDS011;37112;45.892;-123.962;2022-08-19T02:44:45;38.50;;;12.90;;
51066;SDS011;37112;45.892;-123.962;2022-08-19T02:46:59;33.40;;;11.10;;
51066;SDS011;37112;45.892;-123.962;2022-08-19T02:49:12;44.40;;;13.80;;
51066;SDS011;37112;45.892;-123.962;2022-08-19T02:51:26;50.70;;;14.60;;
51066;SDS011;37112;45.892;-123.962;2022-08-19T02:53:40;35.60;;;11.50;;
51066;SDS011;37112;45.892;-123.962;2022-08-19T02:55:54;35.80;;;12.10;;
51066;SDS011;37112;45.892;-123.962;2022-08-19T02:58:07;31.00;;;9.00;;
51066;SDS011;37112;45.892;-123.962;2022-08-19T03:00:20;53.70;;;20.50;;
51066;SDS011;37112;45.892;-123.962;2022-08-19T03:02:34;50.90;;;16.50;;
51066;SDS011;37112;45.892;-123.962;2022-08-19T03:04:46;31.20;;;12.20;;
51066;SDS011;37112;45.892;-123.962;2022-08-19T03:07:00;31.00;;;11.10;;
51066;SDS011;37112;45.892;-123.962;2022-08-19T03:09:17;33.10;;;9.40;;
51066;SDS011;37112;45.892;-123.962;2022-08-19T03:11:31;17.10;;;6.30;;
51066;SDS011;37112;45.892;-123.962;2022-08-19T03:13:45;8.50;;;4.50;;
51066;SDS011;37112;45.892;-123.962;2022-08-19T03:15:58;11.20;;;4.10;;
51066;SDS011;37112;45.892;-123.962;2022-08-19T03:18:14;13.30;;;3.40;;
51066;SDS011;37112;45.892;-123.962;2022-08-19T03:20:28;8.80;;;3.30;;
51066;SDS011;37112;45.892;-123.962;2022-08-19T03:22:42;11.40;;;5.30;;
51066;SDS011;37112;45.892;-123.962;2022-08-19T03:24:55;61.20;;;20.30;;
51066;SDS011;37112;45.892;-123.962;2022-08-19T03:27:08;95.90;;;33.10;;
51066;SDS011;37112;45.892;-123.962;2022-08-19T03:29:21;89.70;;;30.10;;
51066;SDS011;37112;45.892;-123.962;2022-08-19T03:31:36;83.20;;;26.90;;
51066;SDS011;37112;45.892;-123.962;2022-08-19T03:33:58;67.10;;;22.50;;
51066;SDS011;37112;45.892;-123.962;2022-08-19T03:36:14;39.50;;;13.60;;
51066;SDS011;37112;45.892;-123.962;2022-08-19T03:38:29;39.40;;;13.20;;
51066;SDS011;37112;45.892;-123.962;2022-08-19T03:40:42;43.30;;;14.40;;
51066;SDS011;37112;45.892;-123.962;2022-08-19T03:42:55;29.40;;;9.30;;
51066;SDS011;37112;45.892;-123.962;2022-08-19T03:45:09;20.60;;;6.70;;
51066;SDS011;37112;45.892;-123.962;2022-08-19T03:47:23;20.00;;;7.40;;
51066;SDS011;37112;45.892;-123.962;2022-08-19T03:49:36;23.70;;;7.40;;
51066;SDS011;37112;45.892;-123.962;2022-08-19T03:51:49;24.40;;;6.90;;
51066;SDS011;37112;45.892;-123.962;2022-08-19T03:54:05;25.50;;;9.10;;
51066;SDS011;37112;45.892;-123.962;2022-08-19T03:56:21;31.80;;;9.80;;
51066;SDS011;37112;45.892;-123.962;2022-08-19T03:58:36;29.30;;;9.20;;
51066;SDS011;37112;45.892;-123.962;2022-08-19T04:00:53;32.70;;;10.80;;
51066;SDS011;37112;45.892;-123.962;2022-08-19T04:03:06;21.70;;;5.90;;
51066;SDS011;37112;45.892;-123.962;2022-08-19T04:05:20;15.90;;;6.00;;
51066;SDS011;37112;45.892;-123.962;2022-08-19T04:09:46;7.40;;;3.30;;
51066;SDS011;37112;45.892;-123.962;2022-08-19T04:12:01;40.50;;;16.80;;
51066;SDS011;37112;45.892;-123.962;2022-08-19T04:14:17;48.10;;;17.90;;
51066;SDS011;37112;45.892;-123.962;2022-08-19T04:16:32;58.70;;;21.90;;
51066;SDS011;37112;45.892;-123.962;2022-08-19T04:18:46;39.80;;;15.20;;
51066;SDS011;37112;45.892;-123.962;2022-08-19T04:20:59;24.30;;;8.20;;
51066;SDS011;37112;45.892;-123.962;2022-08-19T04:23:32;9.00;;;5.00;;
51066;SDS011;37112;45.892;-123.962;2022-08-19T04:25:51;6.00;;;3.60;;
51066;SDS011;37112;45.892;-123.962;2022-08-19T04:28:05;12.70;;;5.30;;
51066;SDS011;37112;45.892;-123.962;2022-08-19T04:30:19;18.30;;;7.40;;
51066;SDS011;37112;45.892;-123.962;2022-08-19T04:32:33;45.60;;;15.10;;
51066;SDS011;37112;45.892;-123.962;2022-08-19T04:34:47;93.70;;;24.60;;
51066;SDS011;37112;45.892;-123.962;2022-08-19T04:37:20;58.10;;;16.30;;
51066;SDS011;37112;45.892;-123.962;2022-08-19T04:39:41;51.30;;;17.90;;
51066;SDS011;37112;45.892;-123.962;2022-08-19T04:42:17;55.50;;;21.90;;
51066;SDS011;37112;45.892;-123.962;2022-08-19T04:44:49;79.10;;;26.30;;
51066;SDS011;37112;45.892;-123.962;2022-08-19T04:47:03;51.70;;;16.70;;
51066;SDS011;37112;45.892;-123.962;2022-08-19T04:49:18;72.40;;;24.60;;
51066;SDS011;37112;45.892;-123.962;2022-08-19T04:51:32;93.10;;;28.20;;
51066;SDS011;37112;45.892;-123.962;2022-08-19T04:53:46;83.60;;;22.20;;
51066;SDS011;37112;45.892;-123.962;2022-08-19T04:56:03;104.20;;;28.50;;
51066;SDS011;37112;45.892;-123.962;2022-08-19T04:58:18;108.80;;;29.60;;
51066;SDS011;37112;45.892;-123.962;2022-08-19T05:00:32;76.10;;;22.50;;
51066;SDS011;37112;45.892;-123.962;2022-08-19T05:02:47;46.90;;;13.30;;
51066;SDS011;37112;45.892;-123.962;2022-08-19T05:05:01;48.00;;;15.30;;
51066;SDS011;37112;45.892;-123.962;2022-08-19T05:07:16;44.60;;;15.00;;
51066;SDS011;37112;45.892;-123.962;2022-08-19T05:09:30;22.40;;;7.80;;
51066;SDS011;37112;45.892;-123.962;2022-08-19T05:12:05;6.60;;;3.10;;
51066;SDS011;37112;45.892;-123.962;2022-08-19T05:14:18;11.30;;;4.90;;
51066;SDS011;37112;45.892;-123.962;2022-08-19T05:16:36;10.50;;;3.00;;
51066;SDS011;37112;45.892;-123.962;2022-08-19T05:18:50;7.00;;;2.20;;
51066;SDS011;37112;45.892;-123.962;2022-08-19T05:21:20;10.10;;;3.10;;
51066;SDS011;37112;45.892;-123.962;2022-08-19T05:23:50;13.00;;;7.90;;
51066;SDS011;37112;45.892;-123.962;2022-08-19T05:26:05;7.90;;;2.80;;
51066;SDS011;37112;45.892;-123.962;2022-08-19T05:28:18;20.40;;;8.60;;
51066;SDS011;37112;45.892;-123.962;2022-08-19T05:30:32;10.70;;;4.10;;
51066;SDS011;37112;45.892;-123.962;2022-08-19T05:32:53;7.10;;;2.00;;
51066;SDS011;37112;45.892;-123.962;2022-08-19T05:35:06;7.90;;;2.20;;
51066;SDS011;37112;45.892;-123.962;2022-08-19T05:37:20;9.20;;;2.20;;
51066;SDS011;37112;45.892;-123.962;2022-08-19T05:39:35;6.20;;;2.40;;
51066;SDS011;37112;45.892;-123.962;2022-08-19T05:41:49;13.20;;;2.70;;
51066;SDS011;37112;45.892;-123.962;2022-08-19T05:44:04;15.10;;;4.70;;
51066;SDS011;37112;45.892;-123.962;2022-08-19T05:46:18;21.10;;;7.40;;
51066;SDS011;37112;45.892;-123.962;2022-08-19T05:48:33;18.80;;;5.30;;
51066;SDS011;37112;45.892;-123.962;2022-08-19T05:50:47;31.80;;;9.10;;
51066;SDS011;37112;45.892;-123.962;2022-08-19T05:53:00;35.40;;;7.90;;
51066;SDS011;37112;45.892;-123.962;2022-08-19T05:55:13;22.40;;;6.10;;
51066;SDS011;37112;45.892;-123.962;2022-08-19T05:57:28;25.70;;;9.90;;
51066;SDS011;37112;45.892;-123.962;2022-08-19T05:59:41;17.20;;;6.40;;
51066;SDS011;37112;45.892;-123.962;2022-08-19T06:01:59;35.10;;;9.20;;
51066;SDS011;37112;45.892;-123.962;2022-08-19T06:04:13;77.40;;;16.50;;
51066;SDS011;37112;45.892;-123.962;2022-08-19T06:06:29;46.40;;;11.70;;
51066;SDS011;37112;45.892;-123.962;2022-08-19T06:08:43;31.30;;;6.80;;
51066;SDS011;37112;45.892;-123.962;2022-08-19T06:10:57;12.90;;;3.40;;
51066;SDS011;37112;45.892;-123.962;2022-08-19T06:13:21;13.00;;;3.00;;
51066;SDS011;37112;45.892;-123.962;2022-08-19T06:15:40;11.60;;;2.10;;
51066;SDS011;37112;45.892;-123.962;2022-08-19T06:17:54;9.90;;;3.00;;
51066;SDS011;37112;45.892;-123.962;2022-08-19T06:20:08;16.30;;;3.00;;
51066;SDS011;37112;45.892;-123.962;2022-08-19T06:22:46;13.40;;;3.50;;
51066;SDS011;37112;45.892;-123.962;2022-08-19T06:24:59;22.30;;;4.00;;
51066;SDS011;37112;45.892;-123.962;2022-08-19T06:27:13;17.30;;;3.50;;
51066;SDS011;37112;45.892;-123.962;2022-08-19T06:29:26;16.60;;;4.00;;
51066;SDS011;37112;45.892;-123.962;2022-08-19T06:31:40;73.70;;;14.10;;
51066;SDS011;37112;45.892;-123.962;2022-08-19T06:33:55;99.80;;;19.90;;
51066;SDS011;37112;45.892;-123.962;2022-08-19T06:36:13;105.30;;;20.10;;
51066;SDS011;37112;45.892;-123.962;2022-08-19T06:38:31;84.50;;;16.20;;
51066;SDS011;37112;45.892;-123.962;2022-08-19T06:40:44;58.90;;;10.80;;
51066;SDS011;37112;45.892;-123.962;2022-08-19T06:42:57;35.70;;;6.60;;
51066;SDS011;37112;45.892;-123.962;2022-08-19T06:45:14;27.00;;;6.00;;
51066;SDS011;37112;45.892;-123.962;2022-08-19T06:47:40;28.10;;;5.80;;
51066;SDS011;37112;45.892;-123.962;2022-08-19T06:49:55;22.80;;;5.40;;
51066;SDS011;37112;45.892;-123.962;2022-08-19T06:52:12;15.80;;;3.90;;
51066;SDS011;37112;45.892;-123.962;2022-08-19T06:54:26;19.30;;;4.00;;
51066;SDS011;37112;45.892;-123.962;2022-08-19T06:57:00;21.90;;;4.10;;
51066;SDS011;37112;45.892;-123.962;2022-08-19T06:59:14;18.30;;;4.10;;
51066;SDS011;37112;45.892;-123.962;2022-08-19T07:01:28;19.60;;;3.90;;
51066;SDS011;37112;45.892;-123.962;2022-08-19T07:03:45;21.00;;;3.60;;
51066;SDS011;37112;45.892;-123.962;2022-08-19T07:05:58;24.50;;;4.40;;
51066;SDS011;37112;45.892;-123.962;2022-08-19T07:08:36;25.40;;;4.80;;
51066;SDS011;37112;45.892;-123.962;2022-08-19T07:10:52;29.60;;;4.40;;
51066;SDS011;37112;45.892;-123.962;2022-08-19T07:13:06;32.30;;;6.40;;
51066;SDS011;37112;45.892;-123.962;2022-08-19T07:15:19;58.10;;;11.00;;
51066;SDS011;37112;45.892;-123.962;2022-08-19T07:17:32;87.00;;;16.90;;
51066;SDS011;37112;45.892;-123.962;2022-08-19T07:19:47;129.10;;;24.30;;
51066;SDS011;37112;45.892;-123.962;2022-08-19T07:22:01;133.90;;;23.30;;
51066;SDS011;37112;45.892;-123.962;2022-08-19T07:24:18;110.60;;;20.00;;
51066;SDS011;37112;45.892;-123.962;2022-08-19T07:26:39;98.60;;;17.20;;
51066;SDS011;37112;45.892;-123.962;2022-08-19T07:28:57;43.90;;;8.10;;
51066;SDS011;37112;45.892;-123.962;2022-08-19T07:31:11;22.50;;;6.00;;
51066;SDS011;37112;45.892;-123.962;2022-08-19T07:33:29;21.40;;;3.70;;
51066;SDS011;37112;45.892;-123.962;2022-08-19T07:35:44;26.40;;;6.10;;
51066;SDS011;37112;45.892;-123.962;2022-08-19T07:37:57;27.70;;;5.00;;
51066;SDS011;37112;45.892;-123.962;2022-08-19T07:40:12;27.90;;;4.90;;
51066;SDS011;37112;45.892;-123.962;2022-08-19T07:42:25;50.40;;;9.30;;
51066;SDS011;37112;45.892;-123.962;2022-08-19T07:44:38;43.60;;;10.10;;
51066;SDS011;37112;45.892;-123.962;2022-08-19T07:46:56;37.50;;;7.30;;
51066;SDS011;37112;45.892;-123.962;2022-08-19T07:49:10;30.80;;;5.80;;
51066;SDS011;37112;45.892;-123.962;2022-08-19T07:51:27;28.70;;;5.40;;
51066;SDS011;37112;45.892;-123.962;2022-08-19T07:53:42;39.30;;;8.00;;
51066;SDS011;37112;45.892;-123.962;2022-08-19T07:55:56;63.80;;;12.70;;
51066;SDS011;37112;45.892;-123.962;2022-08-19T07:58:12;113.70;;;22.50;;
51066;SDS011;37112;45.892;-123.962;2022-08-19T08:00:27;124.60;;;24.00;;
51066;SDS011;37112;45.892;-123.962;2022-08-19T08:02:40;104.50;;;19.20;;
51066;SDS011;37112;45.892;-123.962;2022-08-19T08:04:55;80.90;;;15.30;;
51066;SDS011;37112;45.892;-123.962;2022-08-19T08:07:24;71.70;;;15.90;;
51066;SDS011;37112;45.892;-123.962;2022-08-19T08:09:53;83.80;;;16.40;;
51066;SDS011;37112;45.892;-123.962;2022-08-19T08:12:09;89.70;;;16.80;;
51066;SDS011;37112;45.892;-123.962;2022-08-19T08:14:41;47.30;;;10.70;;
51066;SDS011;37112;45.892;-123.962;2022-08-19T08:17:01;55.20;;;10.80;;
51066;SDS011;37112;45.892;-123.962;2022-08-19T08:19:18;71.50;;;13.20;;
51066;SDS011;37112;45.892;-123.962;2022-08-19T08:21:32;91.80;;;18.40;;
51066;SDS011;37112;45.892;-123.962;2022-08-19T08:23:46;102.30;;;19.70;;
51066;SDS011;37112;45.892;-123.962;2022-08-19T08:26:01;107.30;;;19.90;;
51066;SDS011;37112;45.892;-123.962;2022-08-19T08:28:15;127.90;;;21.60;;
51066;SDS011;37112;45.892;-123.962;2022-08-19T08:30:29;105.40;;;22.40;;
51066;SDS011;37112;45.892;-123.962;2022-08-19T08:32:43;88.10;;;20.00;;
51066;SDS011;37112;45.892;-123.962;2022-08-19T08:34:56;86.70;;;14.30;;
51066;SDS011;37112;45.892;-123.962;2022-08-19T08:37:09;52.60;;;9.60;;
51066;SDS011;37112;45.892;-123.962;2022-08-19T08:39:22;53.00;;;8.70;;
51066;SDS011;37112;45.892;-123.962;2022-08-19T08:41:37;53.20;;;8.80;;
51066;SDS011;37112;45.892;-123.962;2022-08-19T08:43:56;31.70;;;6.80;;
51066;SDS011;37112;45.892;-123.962;2022-08-19T08:46:12;44.50;;;8.20;;
51066;SDS011;37112;45.892;-123.962;2022-08-19T08:48:39;42.90;;;8.80;;
51066;SDS011;37112;45.892;-123.962;2022-08-19T08:50:58;55.80;;;8.80;;
51066;SDS011;37112;45.892;-123.962;2022-08-19T08:53:14;57.00;;;10.70;;
51066;SDS011;37112;45.892;-123.962;2022-08-19T08:55:36;54.00;;;9.50;;
51066;SDS011;37112;45.892;-123.962;2022-08-19T08:57:52;42.80;;;8.30;;
51066;SDS011;37112;45.892;-123.962;2022-08-19T09:00:10;22.10;;;5.30;;
51066;SDS011;37112;45.892;-123.962;2022-08-19T09:02:27;48.50;;;10.20;;
51066;SDS011;37112;45.892;-123.962;2022-08-19T09:04:40;35.90;;;8.50;;
51066;SDS011;37112;45.892;-123.962;2022-08-19T09:06:56;42.30;;;9.00;;
51066;SDS011;37112;45.892;-123.962;2022-08-19T09:09:40;27.40;;;6.70;;
51066;SDS011;37112;45.892;-123.962;2022-08-19T09:11:58;35.10;;;7.00;;
51066;SDS011;37112;45.892;-123.962;2022-08-19T09:14:23;21.40;;;5.50;;
51066;SDS011;37112;45.892;-123.962;2022-08-19T09:16:56;23.50;;;3.70;;
51066;SDS011;37112;45.892;-123.962;2022-08-19T09:19:11;20.40;;;4.10;;
51066;SDS011;37112;45.892;-123.962;2022-08-19T09:21:28;24.00;;;4.30;;
51066;SDS011;37112;45.892;-123.962;2022-08-19T09:23:41;26.50;;;5.10;;
51066;SDS011;37112;45.892;-123.962;2022-08-19T09:25:56;42.10;;;8.40;;
51066;SDS011;37112;45.892;-123.962;2022-08-19T09:28:10;47.60;;;8.50;;
51066;SDS011;37112;45.892;-123.962;2022-08-19T09:30:31;51.00;;;11.50;;
51066;SDS011;37112;45.892;-123.962;2022-08-19T09:32:48;27.10;;;5.20;;
51066;SDS011;37112;45.892;-123.962;2022-08-19T09:35:02;35.10;;;6.90;;
51066;SDS011;37112;45.892;-123.962;2022-08-19T09:37:16;45.30;;;8.50;;
51066;SDS011;37112;45.892;-123.962;2022-08-19T09:39:30;47.90;;;8.50;;
51066;SDS011;37112;45.892;-123.962;2022-08-19T09:41:43;52.20;;;8.20;;
51066;SDS011;37112;45.892;-123.962;2022-08-19T09:43:57;50.10;;;9.10;;
51066;SDS011;37112;45.892;-123.962;2022-08-19T09:46:11;50.60;;;8.80;;
51066;SDS011;37112;45.892;-123.962;2022-08-19T09:48:29;44.40;;;8.80;;
51066;SDS011;37112;45.892;-123.962;2022-08-19T09:50:44;42.40;;;7.10;;
51066;SDS011;37112;45.892;-123.962;2022-08-19T09:52:57;33.90;;;6.10;;
51066;SDS011;37112;45.892;-123.962;2022-08-19T09:55:12;31.60;;;6.40;;
51066;SDS011;37112;45.892;-123.962;2022-08-19T09:57:25;32.50;;;5.90;;
51066;SDS011;37112;45.892;-123.962;2022-08-19T09:59:38;28.40;;;6.40;;
51066;SDS011;37112;45.892;-123.962;2022-08-19T10:01:52;36.70;;;6.50;;
51066;SDS011;37112;45.892;-123.962;2022-08-19T10:04:16;22.80;;;6.10;;
51066;SDS011;37112;45.892;-123.962;2022-08-19T10:06:31;29.10;;;5.70;;
51066;SDS011;37112;45.892;-123.962;2022-08-19T10:08:52;26.30;;;5.80;;
51066;SDS011;37112;45.892;-123.962;2022-08-19T10:11:05;15.00;;;3.80;;
51066;SDS011;37112;45.892;-123.962;2022-08-19T10:13:38;21.30;;;6.20;;
51066;SDS011;37112;45.892;-123.962;2022-08-19T10:15:52;21.80;;;4.10;;
51066;SDS011;37112;45.892;-123.962;2022-08-19T10:18:07;23.80;;;4.10;;
51066;SDS011;37112;45.892;-123.962;2022-08-19T10:20:20;27.80;;;5.70;;
51066;SDS011;37112;45.892;-123.962;2022-08-19T10:22:33;18.60;;;4.30;;
51066;SDS011;37112;45.892;-123.962;2022-08-19T10:24:47;14.60;;;3.40;;
51066;SDS011;37112;45.892;-123.962;2022-08-19T10:27:00;19.90;;;4.60;;
51066;SDS011;37112;45.892;-123.962;2022-08-19T10:29:14;24.20;;;5.50;;
51066;SDS011;37112;45.892;-123.962;2022-08-19T10:31:38;24.20;;;4.90;;
51066;SDS011;37112;45.892;-123.962;2022-08-19T10:34:08;30.80;;;5.50;;
51066;SDS011;37112;45.892;-123.962;2022-08-19T10:36:34;16.00;;;4.60;;
51066;SDS011;37112;45.892;-123.962;2022-08-19T10:39:03;17.60;;;4.60;;
51066;SDS011;37112;45.892;-123.962;2022-08-19T10:41:20;26.80;;;4.40;;
51066;SDS011;37112;45.892;-123.962;2022-08-19T10:43:35;20.60;;;4.40;;
51066;SDS011;37112;45.892;-123.962;2022-08-19T10:45:50;19.20;;;4.00;;
51066;SDS011;37112;45.892;-123.962;2022-08-19T10:48:06;22.50;;;5.00;;
51066;SDS011;37112;45.892;-123.962;2022-08-19T10:50:24;22.60;;;4.20;;
51066;SDS011;37112;45.892;-123.962;2022-08-19T10:52:54;37.60;;;5.50;;
51066;SDS011;37112;45.892;-123.962;2022-08-19T10:55:13;19.80;;;4.30;;
51066;SDS011;37112;45.892;-123.962;2022-08-19T10:57:43;19.80;;;4.10;;
51066;SDS011;37112;45.892;-123.962;2022-08-19T11:00:11;12.30;;;3.40;;
51066;SDS011;37112;45.892;-123.962;2022-08-19T11:02:25;17.50;;;4.10;;
51066;SDS011;37112;45.892;-123.962;2022-08-19T11:04:38;13.00;;;2.90;;
51066;SDS011;37112;45.892;-123.962;2022-08-19T11:06:52;21.40;;;4.40;;
51066;SDS011;37112;45.892;-123.962;2022-08-19T11:09:05;26.20;;;5.40;;
51066;SDS011;37112;45.892;-123.962;2022-08-19T11:11:19;27.20;;;6.30;;
51066;SDS011;37112;45.892;-123.962;2022-08-19T11:13:33;24.60;;;5.20;;
51066;SDS011;37112;45.892;-123.962;2022-08-19T11:15:47;16.00;;;3.70;;
51066;SDS011;37112;45.892;-123.962;2022-08-19T11:18:14;21.20;;;4.50;;
51066;SDS011;37112;45.892;-123.962;2022-08-19T11:20:27;32.80;;;4.70;;
51066;SDS011;37112;45.892;-123.962;2022-08-19T11:22:41;20.80;;;4.30;;
51066;SDS011;37112;45.892;-123.962;2022-08-19T11:24:54;21.20;;;4.50;;
51066;SDS011;37112;45.892;-123.962;2022-08-19T11:27:07;11.90;;;3.60;;
51066;SDS011;37112;45.892;-123.962;2022-08-19T11:29:21;13.80;;;3.20;;
51066;SDS011;37112;45.892;-123.962;2022-08-19T11:31:35;24.40;;;3.80;;
51066;SDS011;37112;45.892;-123.962;2022-08-19T11:33:49;18.00;;;3.90;;
51066;SDS011;37112;45.892;-123.962;2022-08-19T11:36:03;17.40;;;2.70;;
51066;SDS011;37112;45.892;-123.962;2022-08-19T11:38:20;14.40;;;3.10;;
51066;SDS011;37112;45.892;-123.962;2022-08-19T11:40:33;12.00;;;2.70;;
51066;SDS011;37112;45.892;-123.962;2022-08-19T11:42:47;19.90;;;3.90;;
51066;SDS011;37112;45.892;-123.962;2022-08-19T11:45:07;18.80;;;3.90;;
51066;SDS011;37112;45.892;-123.962;2022-08-19T11:47:21;16.20;;;3.60;;
51066;SDS011;37112;45.892;-123.962;2022-08-19T11:49:34;17.10;;;3.10;;
51066;SDS011;37112;45.892;-123.962;2022-08-19T11:51:47;19.90;;;4.50;;
51066;SDS011;37112;45.892;-123.962;2022-08-19T11:54:01;27.70;;;4.90;;
51066;SDS011;37112;45.892;-123.962;2022-08-19T11:56:15;23.50;;;3.90;;
51066;SDS011;37112;45.892;-123.962;2022-08-19T11:58:28;15.60;;;3.00;;
51066;SDS011;37112;45.892;-123.962;2022-08-19T12:00:41;29.40;;;4.40;;
51066;SDS011;37112;45.892;-123.962;2022-08-19T12:02:54;20.20;;;4.30;;
51066;SDS011;37112;45.892;-123.962;2022-08-19T12:05:07;17.10;;;3.20;;
51066;SDS011;37112;45.892;-123.962;2022-08-19T12:07:21;19.70;;;4.00;;
51066;SDS011;37112;45.892;-123.962;2022-08-19T12:09:34;15.00;;;3.00;;
51066;SDS011;37112;45.892;-123.962;2022-08-19T12:11:48;23.70;;;3.70;;
51066;SDS011;37112;45.892;-123.962;2022-08-19T12:14:01;22.10;;;4.40;;
51066;SDS011;37112;45.892;-123.962;2022-08-19T12:16:21;13.10;;;3.10;;
51066;SDS011;37112;45.892;-123.962;2022-08-19T12:18:35;24.40;;;3.70;;
51066;SDS011;37112;45.892;-123.962;2022-08-19T12:20:50;18.20;;;4.20;;
51066;SDS011;37112;45.892;-123.962;2022-08-19T12:23:04;18.10;;;3.90;;
51066;SDS011;37112;45.892;-123.962;2022-08-19T12:25:18;15.20;;;4.20;;
51066;SDS011;37112;45.892;-123.962;2022-08-19T12:27:31;16.40;;;2.60;;
51066;SDS011;37112;45.892;-123.962;2022-08-19T12:29:46;26.00;;;5.10;;
51066;SDS011;37112;45.892;-123.962;2022-08-19T12:31:59;15.90;;;3.30;;
51066;SDS011;37112;45.892;-123.962;2022-08-19T12:34:15;12.10;;;3.00;;
51066;SDS011;37112;45.892;-123.962;2022-08-19T12:36:29;17.90;;;3.70;;
51066;SDS011;37112;45.892;-123.962;2022-08-19T12:38:42;14.30;;;3.30;;
51066;SDS011;37112;45.892;-123.962;2022-08-19T12:40:55;17.10;;;3.10;;
51066;SDS011;37112;45.892;-123.962;2022-08-19T12:43:08;18.40;;;3.10;;
51066;SDS011;37112;45.892;-123.962;2022-08-19T12:45:22;10.30;;;2.00;;
51066;SDS011;37112;45.892;-123.962;2022-08-19T12:47:36;11.60;;;2.20;;
51066;SDS011;37112;45.892;-123.962;2022-08-19T12:49:53;11.90;;;2.60;;
51066;SDS011;37112;45.892;-123.962;2022-08-19T12:52:08;10.20;;;2.10;;
51066;SDS011;37112;45.892;-123.962;2022-08-19T12:54:28;11.80;;;2.00;;